createdAt,value
2023-02-24T00:00:09.121Z,50.852627
2023-02-24T00:01:09.059Z,50.852646
2023-02-24T00:02:09.146Z,50.852654
2023-02-24T00:03:09.092Z,50.852764
2023-02-24T00:04:09.072Z,50.852787
2023-02-24T00:05:09.062Z,50.852825
2023-02-24T00:06:09.029Z,50.852577
2023-02-24T00:07:09.047Z,50.852516
2023-02-24T00:08:09.044Z,50.852573
2023-02-24T00:09:09.024Z,50.852726
2023-02-24T00:10:09.012Z,50.852711
2023-02-24T00:11:08.989Z,50.852692
2023-02-24T00:12:09.111Z,50.852760
2023-02-24T00:13:09.013Z,50.852787
2023-02-24T00:14:08.991Z,50.852875
2023-02-24T00:15:08.976Z,50.852875
2023-02-24T00:16:08.981Z,50.852875
2023-02-24T00:17:09.079Z,50.852665
2023-02-24T00:18:08.964Z,50.852497
2023-02-24T00:19:08.949Z,50.852482
2023-02-24T00:20:08.951Z,50.852482
2023-02-24T00:21:08.933Z,50.852482
2023-02-24T00:22:08.948Z,50.852482
2023-02-24T00:23:08.917Z,50.852612
2023-02-24T00:24:08.926Z,50.852642
2023-02-24T00:25:08.915Z,50.852745
2023-02-24T00:26:08.898Z,50.852741
2023-02-24T00:27:08.922Z,50.852711
2023-02-24T00:28:08.902Z,50.852680
2023-02-24T00:29:08.886Z,50.852867
2023-02-24T00:30:08.897Z,50.852753
2023-02-24T00:31:09.026Z,50.852631
2023-02-24T00:32:08.964Z,50.852642
2023-02-24T00:33:08.968Z,50.852741
2023-02-24T00:34:08.941Z,50.852795
2023-02-24T00:35:08.868Z,50.852818
2023-02-24T00:36:08.855Z,50.852757
2023-02-24T00:37:08.897Z,50.852779
2023-02-24T00:38:08.857Z,50.852760
2023-02-24T00:39:08.857Z,50.852764
2023-02-24T00:40:08.835Z,50.852898
2023-02-24T00:41:08.818Z,50.852913
2023-02-24T00:42:08.874Z,50.852978
2023-02-24T00:43:08.838Z,50.852871
2023-02-24T00:44:08.833Z,50.852848
2023-02-24T00:45:08.802Z,50.852810
2023-02-24T00:46:08.844Z,50.852848
2023-02-24T00:47:08.812Z,50.852753
2023-02-24T00:48:08.784Z,50.852684
2023-02-24T00:49:08.808Z,50.852592
2023-02-24T00:50:08.767Z,50.852592
2023-02-24T00:51:08.779Z,50.852592
2023-02-24T00:52:08.796Z,50.852592
2023-02-24T00:53:08.750Z,50.852592
2023-02-24T00:54:08.761Z,50.852592
2023-02-24T00:55:08.754Z,50.852592
2023-02-24T00:56:08.750Z,50.852592
2023-02-24T00:57:08.735Z,50.852592
2023-02-24T00:58:08.731Z,50.853218
2023-02-24T00:59:08.719Z,50.853390
2023-02-24T01:00:08.719Z,50.853035
2023-02-24T01:01:08.744Z,50.852879
2023-02-24T01:02:08.699Z,50.852749
2023-02-24T01:03:08.713Z,50.852837
2023-02-24T01:04:08.755Z,50.852905
2023-02-24T01:05:08.681Z,50.852863
2023-02-24T01:06:08.673Z,50.852863
2023-02-24T01:07:08.697Z,50.852386
2023-02-24T01:08:08.714Z,50.852814
2023-02-24T01:09:08.665Z,50.852577
2023-02-24T01:10:08.691Z,50.852573
2023-02-24T01:11:08.650Z,50.852573
2023-02-24T01:12:08.712Z,50.852524
2023-02-24T01:13:08.637Z,50.852585
2023-02-24T01:14:08.662Z,50.852657
2023-02-24T01:15:08.623Z,50.852608
2023-02-24T01:16:08.702Z,50.852627
2023-02-24T01:17:08.614Z,50.852627
2023-02-24T01:18:08.614Z,50.852627
2023-02-24T01:19:08.591Z,50.852654
2023-02-24T01:20:08.638Z,50.852627
2023-02-24T01:21:08.602Z,50.852730
2023-02-24T01:22:08.594Z,50.852722
2023-02-24T01:23:08.567Z,50.852734
2023-02-24T01:24:08.573Z,50.852734
2023-02-24T01:25:08.596Z,50.852734
2023-02-24T01:26:08.590Z,50.852734
2023-02-24T01:27:08.553Z,50.852734
2023-02-24T01:28:08.561Z,50.852734
2023-02-24T01:29:08.531Z,50.852734
2023-02-24T01:30:08.600Z,50.852734
2023-02-24T01:31:08.671Z,50.852734
2023-02-24T01:32:08.667Z,50.852734
2023-02-24T01:33:08.830Z,50.852734
2023-02-24T01:34:08.539Z,50.852734
2023-02-24T01:35:08.513Z,50.852734
2023-02-24T01:36:08.498Z,50.852734
2023-02-24T01:37:08.486Z,50.852734
2023-02-24T01:38:08.529Z,50.852734
2023-02-24T01:39:08.518Z,50.852734
2023-02-24T01:40:08.507Z,50.852734
2023-02-24T01:41:08.468Z,50.852734
2023-02-24T01:42:08.465Z,50.852734
2023-02-24T01:43:08.483Z,50.852734
2023-02-24T01:44:08.451Z,50.852734
2023-02-24T01:45:08.458Z,50.852734
2023-02-24T01:46:08.472Z,50.852734
2023-02-24T01:47:08.442Z,50.852734
2023-02-24T01:48:08.491Z,50.852734
2023-02-24T01:49:08.445Z,50.852734
2023-02-24T01:50:08.417Z,50.852734
2023-02-24T01:51:08.453Z,50.852734
2023-02-24T01:52:08.432Z,50.852734
2023-02-24T01:53:08.474Z,50.852734
2023-02-24T01:54:08.406Z,50.852734
2023-02-24T01:55:08.441Z,50.852734
2023-02-24T01:56:08.394Z,50.852734
2023-02-24T01:57:08.368Z,50.852734
2023-02-24T01:58:08.385Z,50.852734
2023-02-24T01:59:08.401Z,50.852734
2023-02-24T02:00:08.366Z,50.852734
2023-02-24T02:01:08.415Z,50.852734
2023-02-24T02:02:08.485Z,50.852734
2023-02-24T02:03:08.412Z,50.852734
2023-02-24T02:04:08.344Z,50.852734
2023-02-24T02:05:08.344Z,50.852734
2023-02-24T02:06:08.358Z,50.852734
2023-02-24T02:07:08.343Z,50.852734
2023-02-24T02:08:08.305Z,50.852734
2023-02-24T02:09:08.302Z,50.852734
2023-02-24T02:10:08.305Z,50.852734
2023-02-24T02:11:08.296Z,50.852734
2023-02-24T02:12:08.286Z,50.852734
2023-02-24T02:13:08.313Z,50.852734
2023-02-24T02:14:08.277Z,50.852734
2023-02-24T02:15:08.281Z,50.852734
2023-02-24T02:16:08.293Z,50.852734
2023-02-24T02:17:08.275Z,50.852734
2023-02-24T02:18:08.271Z,50.852734
2023-02-24T02:19:08.272Z,50.852734
2023-02-24T02:20:08.239Z,50.852734
2023-02-24T02:21:08.229Z,50.852734
2023-02-24T02:22:08.237Z,50.852734
2023-02-24T02:23:08.239Z,50.852734
2023-02-24T02:24:08.271Z,50.852734
2023-02-24T02:25:08.206Z,50.852734
2023-02-24T02:26:08.225Z,50.852734
2023-02-24T02:27:08.195Z,50.852734
2023-02-24T02:28:08.215Z,50.852734
2023-02-24T02:29:08.225Z,50.852734
2023-02-24T02:30:08.203Z,50.852734
2023-02-24T02:31:08.276Z,50.852734
2023-02-24T02:32:08.264Z,50.852734
2023-02-24T02:33:08.176Z,50.852734
2023-02-24T02:34:08.174Z,50.852734
2023-02-24T02:35:08.147Z,50.852734
2023-02-24T02:36:08.158Z,50.852734
2023-02-24T02:37:08.144Z,50.852734
2023-02-24T02:38:08.151Z,50.852734
2023-02-24T02:39:08.137Z,50.852734
2023-02-24T02:40:08.150Z,50.852734
2023-02-24T02:41:08.139Z,50.852734
2023-02-24T02:42:08.093Z,50.852734
2023-02-24T02:43:08.118Z,50.852734
2023-02-24T02:44:08.120Z,50.852734
2023-02-24T02:45:08.097Z,50.852734
2023-02-24T02:46:08.214Z,50.852734
2023-02-24T02:47:08.084Z,50.852734
2023-02-24T02:48:08.100Z,50.852734
2023-02-24T02:49:08.070Z,50.852734
2023-02-24T02:50:08.064Z,50.852734
2023-02-24T02:51:08.037Z,50.852734
2023-02-24T02:52:08.068Z,50.852734
2023-02-24T02:53:08.039Z,50.852734
2023-02-24T02:54:08.029Z,50.852734
2023-02-24T02:55:08.027Z,50.852734
2023-02-24T02:56:08.051Z,50.852734
2023-02-24T02:57:08.012Z,50.852734
2023-02-24T02:58:08.002Z,50.852734
2023-02-24T02:59:08.000Z,50.852734
2023-02-24T03:00:08.041Z,50.852734
2023-02-24T03:01:08.009Z,50.852875
2023-02-24T03:02:07.997Z,50.852810
2023-02-24T03:03:07.973Z,50.852848
2023-02-24T03:04:07.992Z,50.852814
2023-02-24T03:05:07.951Z,50.853149
2023-02-24T03:06:07.986Z,50.852940
2023-02-24T03:07:07.974Z,50.852894
2023-02-24T03:08:07.962Z,50.852768
2023-02-24T03:09:07.986Z,50.852737
2023-02-24T03:10:07.947Z,50.852810
2023-02-24T03:11:07.924Z,50.852798
2023-02-24T03:12:07.939Z,50.852772
2023-02-24T03:13:07.910Z,50.852745
2023-02-24T03:14:07.926Z,50.852722
2023-02-24T03:15:07.891Z,50.852890
2023-02-24T03:16:07.882Z,50.852943
2023-02-24T03:17:07.890Z,50.852840
2023-02-24T03:18:07.888Z,50.852886
2023-02-24T03:19:07.878Z,50.852886
2023-02-24T03:20:07.881Z,50.852886
2023-02-24T03:21:07.923Z,50.852692
2023-02-24T03:22:07.879Z,50.852722
2023-02-24T03:23:07.844Z,50.852711
2023-02-24T03:24:07.838Z,50.852776
2023-02-24T03:25:07.843Z,50.853024
2023-02-24T03:26:07.917Z,50.852795
2023-02-24T03:27:07.828Z,50.852718
2023-02-24T03:28:07.824Z,50.852879
2023-02-24T03:29:07.813Z,50.852642
2023-02-24T03:30:07.828Z,50.852757
2023-02-24T03:31:07.854Z,50.852833
2023-02-24T03:32:07.920Z,50.852844
2023-02-24T03:33:07.818Z,50.852829
2023-02-24T03:34:07.816Z,50.852669
2023-02-24T03:35:07.775Z,50.852707
2023-02-24T03:36:07.776Z,50.852665
2023-02-24T03:37:07.787Z,50.852665
2023-02-24T03:38:07.749Z,50.852665
2023-02-24T03:39:07.748Z,50.852463
2023-02-24T03:40:07.751Z,50.852463
2023-02-24T03:41:07.749Z,50.852463
2023-02-24T03:42:07.760Z,50.852463
2023-02-24T03:43:07.763Z,50.852463
2023-02-24T03:44:07.716Z,50.852463
2023-02-24T03:45:07.703Z,50.852463
2023-02-24T03:46:07.777Z,50.852463
2023-02-24T03:47:07.722Z,50.852463
2023-02-24T03:48:07.724Z,50.852615
2023-02-24T03:49:07.693Z,50.852615
2023-02-24T03:50:07.704Z,50.852615
2023-02-24T03:51:07.723Z,50.852615
2023-02-24T03:52:07.689Z,50.852940
2023-02-24T03:53:07.674Z,50.852940
2023-02-24T03:54:07.673Z,50.852867
2023-02-24T03:55:07.684Z,50.852867
2023-02-24T03:56:07.654Z,50.852940
2023-02-24T03:57:07.651Z,50.853004
2023-02-24T03:58:07.668Z,50.852894
2023-02-24T03:59:07.651Z,50.852802
2023-02-24T04:00:07.650Z,50.852699
2023-02-24T04:01:07.661Z,50.852608
2023-02-24T04:02:07.729Z,50.852535
2023-02-24T04:03:07.643Z,50.852390
2023-02-24T04:04:07.633Z,50.852371
2023-02-24T04:05:07.646Z,50.852371
2023-02-24T04:06:07.634Z,50.852371
2023-02-24T04:07:07.622Z,50.852371
2023-02-24T04:08:07.607Z,50.852371
2023-02-24T04:09:07.589Z,50.852371
2023-02-24T04:10:07.614Z,50.852371
2023-02-24T04:11:07.571Z,50.852371
2023-02-24T04:12:07.566Z,50.852371
2023-02-24T04:13:07.597Z,50.852371
2023-02-24T04:14:07.569Z,50.852371
2023-02-24T04:15:07.594Z,50.852371
2023-02-24T04:16:07.573Z,50.853081
2023-02-24T04:17:07.546Z,50.853016
2023-02-24T04:18:07.556Z,50.852322
2023-02-24T04:19:07.525Z,50.852322
2023-02-24T04:20:07.523Z,50.852322
2023-02-24T04:21:07.543Z,50.852322
2023-02-24T04:22:07.532Z,50.852322
2023-02-24T04:23:07.516Z,50.853268
2023-02-24T04:24:07.509Z,50.853268
2023-02-24T04:25:07.502Z,50.853268
2023-02-24T04:26:07.518Z,50.853268
2023-02-24T04:27:07.489Z,50.852383
2023-02-24T04:28:07.485Z,50.852493
2023-02-24T04:29:07.484Z,50.853027
2023-02-24T04:30:07.477Z,50.853138
2023-02-24T04:31:07.514Z,50.852757
2023-02-24T04:32:07.646Z,50.853065
2023-02-24T04:33:07.452Z,50.853111
2023-02-24T04:34:07.448Z,50.853069
2023-02-24T04:35:07.435Z,50.853260
2023-02-24T04:36:07.463Z,50.853168
2023-02-24T04:37:07.442Z,50.853271
2023-02-24T04:38:07.451Z,50.853222
2023-02-24T04:39:07.419Z,50.853378
2023-02-24T04:40:07.419Z,50.853268
2023-02-24T04:41:07.435Z,50.853107
2023-02-24T04:42:07.428Z,50.853077
2023-02-24T04:43:07.404Z,50.853153
2023-02-24T04:44:07.385Z,50.853195
2023-02-24T04:45:07.386Z,50.853302
2023-02-24T04:46:07.431Z,50.853283
2023-02-24T04:47:07.410Z,50.853378
2023-02-24T04:48:07.382Z,50.853287
2023-02-24T04:49:07.386Z,50.853260
2023-02-24T04:50:07.366Z,50.853260
2023-02-24T04:51:07.364Z,50.853260
2023-02-24T04:52:07.362Z,50.853260
2023-02-24T04:53:07.379Z,50.853260
2023-02-24T04:54:07.348Z,50.853260
2023-02-24T04:55:07.343Z,50.853333
2023-02-24T04:56:07.336Z,50.853329
2023-02-24T04:57:07.330Z,50.853230
2023-02-24T04:58:07.327Z,50.852966
2023-02-24T04:59:07.355Z,50.852966
2023-02-24T05:00:07.317Z,50.852913
2023-02-24T05:01:07.310Z,50.852985
2023-02-24T05:02:07.303Z,50.852982
2023-02-24T05:03:07.294Z,50.852951
2023-02-24T05:04:07.387Z,50.852730
2023-02-24T05:05:07.284Z,50.852600
2023-02-24T05:06:07.278Z,50.852551
2023-02-24T05:07:07.270Z,50.852524
2023-02-24T05:08:07.298Z,50.852646
2023-02-24T05:09:07.322Z,50.852779
2023-02-24T05:10:07.251Z,50.852867
2023-02-24T05:11:07.262Z,50.852901
2023-02-24T05:12:07.266Z,50.853085
2023-02-24T05:13:07.241Z,50.852882
2023-02-24T05:14:07.236Z,50.852757
2023-02-24T05:15:07.261Z,50.852425
2023-02-24T05:16:07.321Z,50.852348
2023-02-24T05:17:07.246Z,50.852348
2023-02-24T05:18:07.238Z,50.852531
2023-02-24T05:19:07.218Z,50.852551
2023-02-24T05:20:07.211Z,50.852665
2023-02-24T05:21:07.213Z,50.852673
2023-02-24T05:22:07.383Z,50.852657
2023-02-24T05:23:07.200Z,50.852631
2023-02-24T05:24:07.402Z,50.852726
2023-02-24T05:25:07.177Z,50.852791
2023-02-24T05:26:07.195Z,50.852715
2023-02-24T05:27:07.195Z,50.852833
2023-02-24T05:28:07.174Z,50.852703
2023-02-24T05:29:07.264Z,50.852783
2023-02-24T05:30:07.169Z,50.852764
2023-02-24T05:31:07.296Z,50.852821
2023-02-24T05:32:07.264Z,50.852673
2023-02-24T05:33:07.137Z,50.852768
2023-02-24T05:34:07.136Z,50.852737
2023-02-24T05:35:07.143Z,50.852646
2023-02-24T05:36:07.125Z,50.852646
2023-02-24T05:37:07.125Z,50.852600
2023-02-24T05:38:07.132Z,50.852528
2023-02-24T05:39:07.111Z,50.852520
2023-02-24T05:40:13.438Z,50.852711
2023-02-24T05:41:07.100Z,50.852470
2023-02-24T05:42:07.127Z,50.852543
2023-02-24T05:43:07.113Z,50.852516
2023-02-24T05:44:07.079Z,50.852604
2023-02-24T05:45:07.081Z,50.852695
2023-02-24T05:46:07.144Z,50.852695
2023-02-24T05:47:07.109Z,50.852627
2023-02-24T05:48:07.057Z,50.852512
2023-02-24T05:49:07.046Z,50.852669
2023-02-24T05:50:07.066Z,50.852604
2023-02-24T05:51:07.046Z,50.852703
2023-02-24T05:52:07.062Z,50.852703
2023-02-24T05:53:07.023Z,50.852734
2023-02-24T05:54:07.040Z,50.852734
2023-02-24T05:55:07.032Z,50.852734
2023-02-24T05:56:07.030Z,50.852734
2023-02-24T05:57:07.045Z,50.852734
2023-02-24T05:58:07.027Z,50.852734
2023-02-24T05:59:07.009Z,50.852734
2023-02-24T06:00:07.020Z,50.852825
2023-02-24T06:01:06.996Z,50.852699
2023-02-24T06:02:07.416Z,50.852798
2023-02-24T06:03:07.019Z,50.852631
2023-02-24T06:04:06.990Z,50.852741
2023-02-24T06:05:06.998Z,50.852791
2023-02-24T06:06:06.963Z,50.852856
2023-02-24T06:07:06.958Z,50.852722
2023-02-24T06:08:06.952Z,50.852608
2023-02-24T06:09:06.978Z,50.852509
2023-02-24T06:10:06.941Z,50.852840
2023-02-24T06:11:06.937Z,50.852989
2023-02-24T06:12:07.027Z,50.852837
2023-02-24T06:13:06.926Z,50.852802
2023-02-24T06:14:06.936Z,50.852772
2023-02-24T06:15:06.922Z,50.852673
2023-02-24T06:16:06.957Z,50.852573
2023-02-24T06:17:06.922Z,50.852455
2023-02-24T06:18:06.902Z,50.852646
2023-02-24T06:19:06.892Z,50.852619
2023-02-24T06:20:06.904Z,50.852448
2023-02-24T06:21:06.905Z,50.852650
2023-02-24T06:22:06.881Z,50.852768
2023-02-24T06:23:06.888Z,50.852654
2023-02-24T06:24:06.891Z,50.852669
2023-02-24T06:25:06.854Z,50.852684
2023-02-24T06:26:06.908Z,50.852528
2023-02-24T06:27:06.892Z,50.852665
2023-02-24T06:28:06.846Z,50.852722
2023-02-24T06:29:06.848Z,50.852642
2023-02-24T06:30:06.845Z,50.852718
2023-02-24T06:31:06.879Z,50.852654
2023-02-24T06:32:06.937Z,50.852543
2023-02-24T06:33:06.844Z,50.852470
2023-02-24T06:34:06.813Z,50.852486
2023-02-24T06:35:06.828Z,50.852478
2023-02-24T06:36:06.804Z,50.852676
2023-02-24T06:37:06.865Z,50.852642
2023-02-24T06:38:06.811Z,50.852734
2023-02-24T06:39:06.772Z,50.852753
2023-02-24T06:40:06.782Z,50.852676
2023-02-24T06:41:06.781Z,50.852650
2023-02-24T06:42:06.772Z,50.852608
2023-02-24T06:43:06.803Z,50.852692
2023-02-24T06:44:06.823Z,50.852791
2023-02-24T06:45:08.038Z,50.852615
2023-02-24T06:46:06.810Z,50.852623
2023-02-24T06:47:06.750Z,50.852764
2023-02-24T06:48:06.753Z,50.852554
2023-02-24T06:49:06.722Z,50.852547
2023-02-24T06:50:06.745Z,50.852528
2023-02-24T06:51:06.716Z,50.852489
2023-02-24T06:52:06.718Z,50.852535
2023-02-24T06:53:06.724Z,50.852509
2023-02-24T06:54:06.744Z,50.852444
2023-02-24T06:55:06.695Z,50.852741
2023-02-24T06:56:06.695Z,50.852715
2023-02-24T06:57:06.690Z,50.852570
2023-02-24T06:58:06.709Z,50.852612
2023-02-24T06:59:06.673Z,50.852669
2023-02-24T07:00:06.706Z,50.852657
2023-02-24T07:01:06.709Z,50.852631
2023-02-24T07:02:06.657Z,50.852688
2023-02-24T07:03:06.666Z,50.852737
2023-02-24T07:04:06.678Z,50.852844
2023-02-24T07:05:06.670Z,50.852787
2023-02-24T07:06:06.666Z,50.852734
2023-02-24T07:07:06.651Z,50.852764
2023-02-24T07:08:06.633Z,50.852791
2023-02-24T07:09:06.620Z,50.852787
2023-02-24T07:10:06.623Z,50.852772
2023-02-24T07:11:06.611Z,50.852787
2023-02-24T07:12:06.627Z,50.852810
2023-02-24T07:13:06.639Z,50.852825
2023-02-24T07:14:06.620Z,50.852798
2023-02-24T07:15:06.592Z,50.852791
2023-02-24T07:16:06.588Z,50.852753
2023-02-24T07:17:06.596Z,50.852791
2023-02-24T07:18:06.597Z,50.852776
2023-02-24T07:19:06.566Z,50.852768
2023-02-24T07:20:06.567Z,50.852741
2023-02-24T07:21:06.562Z,50.852768
2023-02-24T07:22:06.556Z,50.852783
2023-02-24T07:23:06.564Z,50.852711
2023-02-24T07:24:06.554Z,50.852951
2023-02-24T07:25:06.539Z,50.852802
2023-02-24T07:26:06.538Z,50.852833
2023-02-24T07:27:06.557Z,50.852818
2023-02-24T07:28:06.521Z,50.852905
2023-02-24T07:29:06.587Z,50.852856
2023-02-24T07:30:06.524Z,50.852840
2023-02-24T07:31:06.571Z,50.852779
2023-02-24T07:32:06.678Z,50.852829
2023-02-24T07:33:06.527Z,50.852882
2023-02-24T07:34:06.505Z,50.852768
2023-02-24T07:35:06.511Z,50.852783
2023-02-24T07:36:06.484Z,50.852779
2023-02-24T07:37:06.494Z,50.852638
2023-02-24T07:38:06.481Z,50.852856
2023-02-24T07:39:06.487Z,50.852940
2023-02-24T07:40:06.476Z,50.852791
2023-02-24T07:41:06.471Z,50.852859
2023-02-24T07:42:06.452Z,50.852711
2023-02-24T07:43:06.439Z,50.852749
2023-02-24T07:44:06.449Z,50.852737
2023-02-24T07:45:06.450Z,50.852673
2023-02-24T07:46:06.493Z,50.852772
2023-02-24T07:47:06.420Z,50.852772
2023-02-24T07:48:06.413Z,50.852798
2023-02-24T07:49:06.402Z,50.852757
2023-02-24T07:50:06.435Z,50.852776
2023-02-24T07:51:06.395Z,50.852745
2023-02-24T07:52:06.381Z,50.852806
2023-02-24T07:53:06.406Z,50.852768
2023-02-24T07:54:06.381Z,50.852749
2023-02-24T07:55:06.379Z,50.852818
2023-02-24T07:56:06.413Z,50.852856
2023-02-24T07:57:06.376Z,50.852829
2023-02-24T07:58:06.397Z,50.852814
2023-02-24T07:59:06.341Z,50.852867
2023-02-24T08:00:06.382Z,50.852814
2023-02-24T08:01:06.326Z,50.852715
2023-02-24T08:02:06.389Z,50.852707
2023-02-24T08:03:06.336Z,50.852737
2023-02-24T08:04:06.318Z,50.852638
2023-02-24T08:05:06.355Z,50.852753
2023-02-24T08:06:06.327Z,50.852707
2023-02-24T08:07:06.307Z,50.852726
2023-02-24T08:08:06.299Z,50.852757
2023-02-24T08:09:06.296Z,50.852612
2023-02-24T08:10:06.289Z,50.852703
2023-02-24T08:11:06.281Z,50.852779
2023-02-24T08:12:06.352Z,50.852779
2023-02-24T08:13:06.270Z,50.852764
2023-02-24T08:14:06.276Z,50.852779
2023-02-24T08:15:06.277Z,50.852745
2023-02-24T08:16:06.307Z,50.852810
2023-02-24T08:17:06.265Z,50.852749
2023-02-24T08:18:06.262Z,50.852745
2023-02-24T08:19:06.266Z,50.852737
2023-02-24T08:20:06.227Z,50.852806
2023-02-24T08:21:06.247Z,50.852760
2023-02-24T08:22:06.244Z,50.852737
2023-02-24T08:23:06.256Z,50.852753
2023-02-24T08:24:06.219Z,50.852764
2023-02-24T08:25:06.279Z,50.852829
2023-02-24T08:26:06.255Z,50.852768
2023-02-24T08:27:06.235Z,50.852814
2023-02-24T08:28:09.356Z,50.852722
2023-02-24T08:29:06.179Z,50.852798
2023-02-24T08:30:06.171Z,50.852726
2023-02-24T08:31:06.287Z,50.852764
2023-02-24T08:32:06.235Z,50.852707
2023-02-24T08:33:06.159Z,50.852749
2023-02-24T08:34:06.154Z,50.852707
2023-02-24T08:35:06.164Z,50.852753
2023-02-24T08:36:06.160Z,50.852833
2023-02-24T08:37:06.175Z,50.852825
2023-02-24T08:38:06.144Z,50.852772
2023-02-24T08:39:06.205Z,50.852810
2023-02-24T08:40:06.126Z,50.852909
2023-02-24T08:41:06.116Z,50.852837
2023-02-24T08:42:06.118Z,50.852673
2023-02-24T08:43:06.098Z,50.852631
2023-02-24T08:44:06.104Z,50.852798
2023-02-24T08:45:06.122Z,50.852646
2023-02-24T08:46:06.131Z,50.852764
2023-02-24T08:47:06.262Z,50.852779
2023-02-24T08:48:06.097Z,50.852783
2023-02-24T08:49:06.100Z,50.852875
2023-02-24T08:50:06.090Z,50.852711
2023-02-24T08:51:06.089Z,50.852715
2023-02-24T08:52:06.062Z,50.852859
2023-02-24T08:53:06.084Z,50.852863
2023-02-24T08:54:06.048Z,50.852791
2023-02-24T08:55:06.052Z,50.852806
2023-02-24T08:56:06.040Z,50.852764
2023-02-24T08:57:06.026Z,50.852779
2023-02-24T08:58:06.032Z,50.852749
2023-02-24T08:59:06.281Z,50.852757
2023-02-24T09:00:06.036Z,50.852764
2023-02-24T09:01:06.080Z,50.852840
2023-02-24T09:02:06.008Z,50.852760
2023-02-24T09:03:06.009Z,50.852779
2023-02-24T09:04:05.994Z,50.852783
2023-02-24T09:05:06.128Z,50.852844
2023-02-24T09:06:05.986Z,50.852779
2023-02-24T09:07:11.524Z,50.852779
2023-02-24T09:08:05.975Z,50.852760
2023-02-24T09:09:05.969Z,50.852703
2023-02-24T09:10:05.993Z,50.852760
2023-02-24T09:11:06.015Z,50.852787
2023-02-24T09:12:05.958Z,50.852806
2023-02-24T09:13:05.958Z,50.852833
2023-02-24T09:14:07.882Z,50.852833
2023-02-24T09:15:05.929Z,50.852833
2023-02-24T09:16:05.966Z,50.852795
2023-02-24T09:17:06.401Z,50.852798
2023-02-24T09:18:05.926Z,50.852760
2023-02-24T09:19:05.912Z,50.852814
2023-02-24T09:20:05.906Z,50.852806
2023-02-24T09:21:05.879Z,50.852657
2023-02-24T09:22:10.413Z,50.852745
2023-02-24T09:23:06.883Z,50.852825
2023-02-24T09:24:05.878Z,50.852779
2023-02-24T09:25:05.863Z,50.852745
2023-02-24T09:26:05.868Z,50.852749
2023-02-24T09:27:05.854Z,50.852814
2023-02-24T09:28:05.892Z,50.852737
2023-02-24T09:29:05.832Z,50.852692
2023-02-24T09:30:05.825Z,50.852776
2023-02-24T09:31:05.939Z,50.852745
2023-02-24T09:32:06.103Z,50.852760
2023-02-24T09:33:05.975Z,50.852818
2023-02-24T09:34:05.834Z,50.852741
2023-02-24T09:35:05.799Z,50.852676
2023-02-24T09:36:05.802Z,50.852596
2023-02-24T09:37:05.813Z,50.852631
2023-02-24T09:38:05.871Z,50.852638
2023-02-24T09:39:05.772Z,50.852676
2023-02-24T09:40:05.815Z,50.852779
2023-02-24T09:41:18.465Z,50.852726
2023-02-24T09:42:06.761Z,50.852726
2023-02-24T09:43:05.740Z,50.852798
2023-02-24T09:44:05.757Z,50.852795
2023-02-24T09:45:05.739Z,50.852791
2023-02-24T09:46:05.843Z,50.852951
2023-02-24T09:47:05.761Z,50.852970
2023-02-24T09:48:05.753Z,50.852783
2023-02-24T09:49:05.730Z,50.852737
2023-02-24T09:50:05.788Z,50.852818
2023-02-24T09:51:05.982Z,50.852753
2023-02-24T09:52:05.724Z,50.852829
2023-02-24T09:53:11.126Z,50.852898
2023-02-24T09:54:06.674Z,50.852875
2023-02-24T09:55:05.682Z,50.852844
2023-02-24T09:56:05.704Z,50.852863
2023-02-24T09:57:05.702Z,50.852814
2023-02-24T09:58:05.708Z,50.852798
2023-02-24T09:59:05.651Z,50.852757
2023-02-24T10:00:05.637Z,50.852665
2023-02-24T10:01:05.704Z,50.852779
2023-02-24T10:02:05.659Z,50.852802
2023-02-24T10:03:05.609Z,50.852764
2023-02-24T10:04:18.588Z,50.852692
2023-02-24T10:05:06.603Z,50.852718
2023-02-24T10:06:05.602Z,50.852825
2023-02-24T10:07:05.614Z,50.852779
2023-02-24T10:08:05.592Z,50.852715
2023-02-24T10:09:05.578Z,50.852715
2023-02-24T10:10:05.572Z,50.852837
2023-02-24T10:11:05.557Z,50.852879
2023-02-24T10:12:05.609Z,50.852802
2023-02-24T10:13:05.585Z,50.852810
2023-02-24T10:14:05.643Z,50.852951
2023-02-24T10:15:05.528Z,50.852951
2023-02-24T10:16:06.957Z,50.852798
2023-02-24T10:17:05.545Z,50.852818
2023-02-24T10:18:05.541Z,50.852730
2023-02-24T10:19:05.557Z,50.852844
2023-02-24T10:20:05.520Z,50.852829
2023-02-24T10:21:05.561Z,50.853062
2023-02-24T10:22:05.494Z,50.853001
2023-02-24T10:23:05.513Z,50.852894
2023-02-24T10:24:05.523Z,50.852909
2023-02-24T10:25:05.489Z,50.852962
2023-02-24T10:26:07.003Z,50.852940
2023-02-24T10:27:08.706Z,50.852962
2023-02-24T10:28:05.470Z,50.852875
2023-02-24T10:29:05.466Z,50.852795
2023-02-24T10:30:05.451Z,50.852871
2023-02-24T10:31:05.524Z,50.852825
2023-02-24T10:32:05.661Z,50.852833
2023-02-24T10:33:05.462Z,50.852787
2023-02-24T10:34:05.447Z,50.852833
2023-02-24T10:35:05.411Z,50.852806
2023-02-24T10:36:05.411Z,50.852795
2023-02-24T10:37:05.396Z,50.852772
2023-02-24T10:38:05.621Z,50.852749
2023-02-24T10:39:05.405Z,50.852833
2023-02-24T10:40:05.391Z,50.852936
2023-02-24T10:41:05.379Z,50.852840
2023-02-24T10:42:05.389Z,50.853020
2023-02-24T10:43:05.397Z,50.852879
2023-02-24T10:44:05.452Z,50.852871
2023-02-24T10:45:09.721Z,50.852985
2023-02-24T10:46:05.362Z,50.852951
2023-02-24T10:47:05.370Z,50.852928
2023-02-24T10:48:05.333Z,50.852882
2023-02-24T10:49:05.330Z,50.852882
2023-02-24T10:50:05.332Z,50.852814
2023-02-24T10:51:05.307Z,50.852886
2023-02-24T10:52:05.321Z,50.852962
2023-02-24T10:53:05.309Z,50.852898
2023-02-24T10:54:05.293Z,50.852894
2023-02-24T10:55:05.348Z,50.852779
2023-02-24T10:56:05.315Z,50.852859
2023-02-24T10:57:05.279Z,50.852905
2023-02-24T10:58:05.271Z,50.852947
2023-02-24T10:59:05.326Z,50.852921
2023-02-24T11:00:05.268Z,50.852852
2023-02-24T11:01:05.286Z,50.852791
2023-02-24T11:02:05.302Z,50.852768
2023-02-24T11:03:05.236Z,50.852806
2023-02-24T11:04:05.236Z,50.852757
2023-02-24T11:05:05.278Z,50.852818
2023-02-24T11:06:05.368Z,50.852795
2023-02-24T11:07:05.235Z,50.852833
2023-02-24T11:08:05.217Z,50.852844
2023-02-24T11:09:05.245Z,50.852833
2023-02-24T11:10:05.223Z,50.852886
2023-02-24T11:11:05.211Z,50.852833
2023-02-24T11:12:05.226Z,50.852863
2023-02-24T11:13:10.131Z,50.852856
2023-02-24T11:14:06.178Z,50.852821
2023-02-24T11:15:05.156Z,50.852806
2023-02-24T11:16:05.207Z,50.852859
2023-02-24T11:17:05.168Z,50.852871
2023-02-24T11:18:05.159Z,50.852886
2023-02-24T11:19:05.136Z,50.852940
2023-02-24T11:20:05.131Z,50.852879
2023-02-24T11:21:05.135Z,50.852871
2023-02-24T11:22:05.148Z,50.852795
2023-02-24T11:23:05.114Z,50.852913
2023-02-24T11:24:05.170Z,50.852882